Time;durP1;ratioP1;P1;durP2;ratioP2;P2;SDS_P1;SDS_P2;PMS_P1;PMS_P2;Temp;Humidity;BMP_temperature;BMP_pressure;BME280_temperature;BME280_humidity;BME280_pressure;Samples;Min_cycle;Max_cycle;Signal;HPM_P1;HPM_P2
2021/05/13 00:00:52;;;;;;;2.88;1.25;;;25.20;44.00;;;;;;5037473;28;20067;-61
2021/05/13 00:03:17;;;;;;;2.35;1.35;;;25.20;44.00;;;;;;5032690;28;20055;-60
2021/05/13 00:05:43;;;;;;;1.90;1.20;;;25.20;43.90;;;;;;5040868;28;20135;-62
2021/05/13 00:08:08;;;;;;;1.95;1.30;;;25.20;44.00;;;;;;5042549;28;20431;-62
2021/05/13 00:10:34;;;;;;;2.00;1.20;;;25.20;44.00;;;;;;5043030;28;20024;-63
2021/05/13 00:13:05;;;;;;;2.45;1.33;;;25.20;44.00;;;;;;5040025;28;20025;-61
2021/05/13 00:15:34;;;;;;;2.38;1.20;;;25.20;44.00;;;;;;5043832;28;20075;-60
2021/05/13 00:18:00;;;;;;;2.95;1.40;;;25.20;44.00;;;;;;5040654;28;20204;-62
2021/05/13 00:20:28;;;;;;;2.20;1.60;;;25.20;44.00;;;;;;5038180;28;20526;-61
2021/05/13 00:22:54;;;;;;;2.30;1.52;;;25.20;44.00;;;;;;5043455;28;20445;-62
2021/05/13 00:25:20;;;;;;;2.03;1.27;;;25.20;44.00;;;;;;5051785;28;20095;-61
2021/05/13 00:27:47;;;;;;;3.15;1.40;;;25.20;43.90;;;;;;5059817;28;20025;-63
2021/05/13 00:30:13;;;;;;;1.73;1.10;;;25.30;44.00;;;;;;5043382;28;20025;-61
2021/05/13 00:32:39;;;;;;;2.10;1.17;;;25.30;43.90;;;;;;5043219;28;20043;-62
2021/05/13 00:35:11;;;;;;;2.67;1.40;;;25.30;43.90;;;;;;5048128;28;20037;-60
2021/05/13 00:37:36;;;;;;;1.90;1.13;;;25.30;43.90;;;;;;5046462;28;20025;-61
2021/05/13 00:40:04;;;;;;;1.58;1.15;;;25.30;43.80;;;;;;5049063;28;20025;-62
2021/05/13 00:42:30;;;;;;;2.20;1.30;;;25.30;43.80;;;;;;5047011;28;20025;-62
2021/05/13 00:44:56;;;;;;;1.77;1.10;;;25.30;43.70;;;;;;5048220;28;20114;-60
2021/05/13 00:47:26;;;;;;;2.22;1.30;;;25.30;43.80;;;;;;5046865;28;20426;-62
2021/05/13 00:49:51;;;;;;;2.33;1.20;;;25.30;43.80;;;;;;5045189;28;20094;-60
2021/05/13 00:52:21;;;;;;;2.75;1.27;;;25.30;43.80;;;;;;5047630;28;20100;-60
2021/05/13 00:54:47;;;;;;;1.33;1.00;;;25.20;43.80;;;;;;5038436;28;20100;-60
2021/05/13 00:57:14;;;;;;;1.80;1.10;;;25.20;43.80;;;;;;5043868;28;20020;-61
2021/05/13 00:59:43;;;;;;;2.72;1.05;;;25.20;43.80;;;;;;5038314;28;20045;-61
2021/05/13 01:02:09;;;;;;;2.30;1.10;;;25.20;43.80;;;;;;5045590;28;20152;-62
2021/05/13 01:04:35;;;;;;;1.70;1.00;;;25.10;43.70;;;;;;5043122;28;20230;-60
2021/05/13 01:07:00;;;;;;;2.03;1.10;;;25.10;43.70;;;;;;5046464;28;20596;-60
2021/05/13 01:09:29;;;;;;;2.00;1.10;;;25.10;43.80;;;;;;5049886;28;20024;-62
2021/05/13 01:11:58;;;;;;;1.80;1.00;;;25.10;43.80;;;;;;5045213;28;20567;-60
2021/05/13 01:17:01;;;;;;;2.05;1.20;;;25.10;43.80;;;;;;5047827;28;20444;-62
2021/05/13 01:19:27;;;;;;;1.70;1.10;;;25.10;43.80;;;;;;5030325;28;20026;-60
2021/05/13 01:21:53;;;;;;;1.75;1.00;;;25.10;43.80;;;;;;5035885;28;20025;-60
2021/05/13 01:24:19;;;;;;;1.45;1.00;;;25.00;43.70;;;;;;5034463;28;20120;-61
2021/05/13 01:26:46;;;;;;;1.52;1.10;;;25.00;43.80;;;;;;5049346;28;20024;-61
2021/05/13 01:29:13;;;;;;;2.58;1.10;;;25.00;43.80;;;;;;5049814;28;20484;-61
2021/05/13 01:31:39;;;;;;;1.83;1.02;;;24.90;43.70;;;;;;5046954;28;20044;-60
2021/05/13 01:34:06;;;;;;;1.75;1.20;;;24.90;43.70;;;;;;5049081;28;20043;-61
2021/05/13 01:36:34;;;;;;;1.35;1.00;;;24.90;43.70;;;;;;5037178;28;20063;-60
2021/05/13 01:39:00;;;;;;;1.02;0.85;;;24.90;43.70;;;;;;5049056;28;20025;-60
2021/05/13 01:41:26;;;;;;;1.92;1.00;;;24.90;43.70;;;;;;5047648;28;20028;-60
2021/05/13 01:43:52;;;;;;;2.97;1.10;;;24.80;43.70;;;;;;5030946;28;20104;-60
2021/05/13 01:46:17;;;;;;;1.60;1.02;;;24.80;43.70;;;;;;5033594;28;20282;-63
2021/05/13 01:48:44;;;;;;;1.90;1.00;;;24.80;43.70;;;;;;5027517;28;20495;-62
2021/05/13 01:51:11;;;;;;;1.58;1.02;;;24.80;43.70;;;;;;5032621;28;20064;-60
2021/05/13 01:53:39;;;;;;;1.92;1.10;;;24.80;43.70;;;;;;5049446;28;20440;-60
2021/05/13 01:56:07;;;;;;;1.42;1.02;;;24.80;43.70;;;;;;5035238;28;20057;-62
2021/05/13 01:58:33;;;;;;;1.85;1.00;;;24.80;43.80;;;;;;5044137;28;20136;-60
2021/05/13 02:00:58;;;;;;;1.55;1.08;;;24.80;43.80;;;;;;5031726;28;20124;-61
2021/05/13 02:03:25;;;;;;;1.88;1.00;;;24.70;43.80;;;;;;5047085;28;20040;-61
2021/05/13 02:05:51;;;;;;;1.25;0.90;;;24.70;43.80;;;;;;5048569;28;20067;-61
2021/05/13 02:08:17;;;;;;;1.13;0.90;;;24.70;43.80;;;;;;5045859;28;20071;-60
2021/05/13 02:10:42;;;;;;;1.80;1.00;;;24.70;43.80;;;;;;5029871;28;20033;-60
2021/05/13 02:13:08;;;;;;;1.15;0.90;;;24.60;43.70;;;;;;5043491;28;20056;-63
2021/05/13 02:15:33;;;;;;;1.38;0.90;;;24.60;43.80;;;;;;5029314;28;20095;-61
2021/05/13 02:17:59;;;;;;;1.38;0.90;;;24.60;43.80;;;;;;5041649;28;20037;-60
2021/05/13 02:20:25;;;;;;;1.33;1.00;;;24.60;43.80;;;;;;5047732;28;20413;-60
2021/05/13 02:22:53;;;;;;;1.50;0.85;;;24.60;43.80;;;;;;5046130;28;20516;-60
2021/05/13 02:25:19;;;;;;;1.58;1.00;;;24.60;43.80;;;;;;5048523;28;20084;-60
2021/05/13 02:27:45;;;;;;;1.35;0.90;;;24.50;43.80;;;;;;5041167;28;20061;-61
2021/05/13 02:30:12;;;;;;;1.58;1.00;;;24.50;43.80;;;;;;5039215;28;20036;-61
2021/05/13 02:32:39;;;;;;;1.35;0.95;;;24.50;43.80;;;;;;5046612;28;20642;-61
2021/05/13 02:35:06;;;;;;;1.77;1.02;;;24.50;43.80;;;;;;5048546;28;20174;-61
2021/05/13 02:37:31;;;;;;;1.25;0.90;;;24.50;43.90;;;;;;5037721;28;20113;-60
2021/05/13 02:39:57;;;;;;;1.55;0.90;;;24.40;43.80;;;;;;5048322;28;20497;-60
2021/05/13 02:42:22;;;;;;;1.52;1.00;;;24.40;43.80;;;;;;5044419;28;20071;-60
2021/05/13 02:44:48;;;;;;;1.70;0.88;;;24.40;43.80;;;;;;5034519;28;20135;-61
2021/05/13 02:47:14;;;;;;;1.27;0.90;;;24.40;43.80;;;;;;5046460;28;20028;-61
2021/05/13 02:49:39;;;;;;;1.40;0.93;;;24.40;43.80;;;;;;5048745;28;20497;-60
2021/05/13 02:52:05;;;;;;;1.52;0.90;;;24.40;43.80;;;;;;5036065;28;20036;-61
2021/05/13 02:54:31;;;;;;;1.10;0.90;;;24.30;43.80;;;;;;5042249;28;20161;-62
2021/05/13 02:56:56;;;;;;;1.38;0.90;;;24.30;43.80;;;;;;5029590;28;20143;-60
2021/05/13 02:59:29;;;;;;;2.17;1.00;;;24.30;43.80;;;;;;5037166;28;20072;-60
2021/05/13 03:01:55;;;;;;;1.15;0.93;;;24.30;44.40;;;;;;5028722;28;20025;-62
2021/05/13 03:04:20;;;;;;;1.30;0.90;;;24.30;43.90;;;;;;5047560;28;20037;-60
2021/05/13 03:06:48;;;;;;;1.20;0.82;;;24.30;43.90;;;;;;5047624;28;20816;-62
2021/05/13 03:09:15;;;;;;;1.20;1.10;;;24.30;43.90;;;;;;5048382;28;20672;-59
2021/05/13 03:11:41;;;;;;;1.20;0.80;;;24.30;43.90;;;;;;5038427;28;20025;-60
2021/05/13 03:14:08;;;;;;;1.45;0.90;;;24.20;43.80;;;;;;5031989;28;20045;-61
2021/05/13 03:16:34;;;;;;;0.98;0.80;;;24.20;43.80;;;;;;5046849;28;20021;-60
2021/05/13 03:19:00;;;;;;;0.77;0.70;;;24.20;43.80;;;;;;5047335;28;20036;-60
2021/05/13 03:21:37;;;;;;;1.25;0.90;;;24.20;43.80;;;;;;5042115;28;20020;-61
2021/05/13 03:29:10;;;;;;;1.20;0.95;;;24.10;43.80;;;;;;5027991;28;20026;-62
2021/05/13 03:31:36;;;;;;;1.10;0.80;;;24.10;43.80;;;;;;5044652;28;20075;-60
2021/05/13 03:34:02;;;;;;;1.10;0.80;;;24.20;43.90;;;;;;5041599;28;20091;-60
2021/05/13 03:36:31;;;;;;;1.08;0.90;;;24.10;43.80;;;;;;5044965;28;20041;-63
2021/05/13 03:38:56;;;;;;;1.05;0.90;;;24.10;43.80;;;;;;5044333;28;20041;-61
2021/05/13 03:41:22;;;;;;;1.33;0.90;;;24.10;43.80;;;;;;5045416;28;20070;-59
2021/05/13 03:43:47;;;;;;;1.38;1.00;;;24.10;43.90;;;;;;5043731;28;20052;-61
2021/05/13 03:46:13;;;;;;;1.10;0.80;;;24.10;43.90;;;;;;5043270;28;20033;-61
2021/05/13 03:48:38;;;;;;;1.25;0.80;;;24.10;43.90;;;;;;5046477;28;20055;-60
2021/05/13 03:51:04;;;;;;;1.33;1.02;;;24.00;43.80;;;;;;5046988;28;20128;-63
2021/05/13 03:53:31;;;;;;;1.15;0.88;;;24.00;43.90;;;;;;5044363;28;20059;-61
2021/05/13 03:55:56;;;;;;;1.40;0.90;;;24.00;43.80;;;;;;5042464;28;20128;-61
2021/05/13 03:58:26;;;;;;;0.90;0.80;;;24.00;43.90;;;;;;5038797;28;20135;-60
2021/05/13 04:03:21;;;;;;;2.03;1.25;;;24.00;43.90;;;;;;5025626;28;20093;-60
2021/05/13 04:05:47;;;;;;;0.98;0.80;;;23.90;43.80;;;;;;5029454;28;20103;-62
2021/05/13 04:08:13;;;;;;;1.77;0.90;;;24.00;43.90;;;;;;5046444;28;20494;-60
2021/05/13 04:10:40;;;;;;;1.45;0.80;;;23.90;43.80;;;;;;5046178;28;20336;-61
2021/05/13 04:13:09;;;;;;;0.95;0.80;;;23.90;43.90;;;;;;5045698;28;20039;-60
2021/05/13 04:15:35;;;;;;;0.90;0.80;;;23.90;43.90;;;;;;5047158;28;20059;-61
2021/05/13 04:18:01;;;;;;;1.02;0.80;;;23.90;43.90;;;;;;5028165;28;20060;-63
2021/05/13 04:20:26;;;;;;;0.85;0.70;;;23.90;43.90;;;;;;5027045;28;20239;-61
2021/05/13 04:22:52;;;;;;;1.33;0.80;;;23.90;43.90;;;;;;5044218;28;20053;-61
2021/05/13 04:25:18;;;;;;;1.10;0.80;;;23.90;43.90;;;;;;5044273;28;20036;-60
2021/05/13 04:27:44;;;;;;;0.77;0.73;;;23.90;43.90;;;;;;5044885;28;20037;-62
2021/05/13 04:30:10;;;;;;;1.50;0.93;;;23.80;43.90;;;;;;5040615;28;20053;-61
2021/05/13 04:32:36;;;;;;;1.20;0.90;;;23.90;44.00;;;;;;5044950;28;20044;-60
2021/05/13 04:35:02;;;;;;;0.70;0.70;;;23.80;43.90;;;;;;5038742;28;20029;-62
2021/05/13 04:37:28;;;;;;;1.23;0.90;;;23.80;43.90;;;;;;5034406;28;20059;-62
2021/05/13 04:39:54;;;;;;;0.95;0.73;;;23.80;43.90;;;;;;5046297;28;20029;-60
2021/05/13 04:42:19;;;;;;;1.45;0.90;;;23.80;43.90;;;;;;5044528;28;20749;-61
2021/05/13 04:44:45;;;;;;;0.80;0.70;;;23.80;43.90;;;;;;5044555;28;20025;-60
2021/05/13 04:47:25;;;;;;;0.90;0.80;;;23.70;43.90;;;;;;5044650;28;20219;-61
2021/05/13 04:49:53;;;;;;;1.10;0.80;;;23.70;43.90;;;;;;5035355;28;20041;-63
2021/05/13 04:52:20;;;;;;;1.25;0.80;;;23.70;43.90;;;;;;5037325;28;20074;-61
2021/05/13 04:54:51;;;;;;;1.00;0.70;;;23.70;43.90;;;;;;5027932;28;20041;-61
2021/05/13 04:57:17;;;;;;;1.08;0.73;;;23.70;44.00;;;;;;5026675;28;20056;-63
2021/05/13 04:59:44;;;;;;;1.10;0.80;;;23.70;43.90;;;;;;5039426;28;20033;-61
2021/05/13 05:02:10;;;;;;;1.08;0.80;;;23.70;44.00;;;;;;5026287;28;20096;-61
2021/05/13 05:04:36;;;;;;;1.27;0.90;;;23.70;44.00;;;;;;5046400;28;20057;-61
2021/05/13 05:07:01;;;;;;;1.00;0.80;;;23.70;44.00;;;;;;5043101;28;22117;-59
2021/05/13 05:09:27;;;;;;;1.20;0.68;;;23.70;44.00;;;;;;5043365;28;20033;-61
2021/05/13 05:11:53;;;;;;;0.98;0.80;;;23.70;44.00;;;;;;5030890;28;20172;-61
2021/05/13 05:14:18;;;;;;;1.38;0.90;;;23.60;44.00;;;;;;5040867;28;20095;-62
2021/05/13 05:16:44;;;;;;;1.05;0.80;;;23.60;44.00;;;;;;5038029;28;20033;-61
2021/05/13 05:19:10;;;;;;;1.17;0.90;;;23.60;44.00;;;;;;5045941;28;20917;-60
2021/05/13 05:21:36;;;;;;;0.90;0.73;;;23.60;44.00;;;;;;5049091;28;20152;-61
2021/05/13 05:24:01;;;;;;;0.88;0.77;;;23.60;44.00;;;;;;5038362;28;20460;-59
2021/05/13 05:26:27;;;;;;;1.15;0.73;;;23.60;44.00;;;;;;5035826;28;20033;-61
2021/05/13 05:28:52;;;;;;;1.02;0.70;;;23.60;44.10;;;;;;5040559;28;20036;-62
2021/05/13 05:31:18;;;;;;;0.90;0.80;;;23.60;44.10;;;;;;5047643;28;20045;-60
2021/05/13 05:33:44;;;;;;;0.93;0.77;;;23.60;44.10;;;;;;5034788;28;20374;-60
2021/05/13 05:36:09;;;;;;;1.17;0.90;;;23.50;44.00;;;;;;5039108;28;20052;-60
2021/05/13 05:38:35;;;;;;;0.68;0.68;;;23.50;44.10;;;;;;5044636;28;20061;-60
2021/05/13 05:41:01;;;;;;;0.88;0.70;;;23.60;44.10;;;;;;5039412;28;20032;-62
2021/05/13 05:43:26;;;;;;;1.17;0.90;;;23.50;44.10;;;;;;5048768;28;20024;-60
2021/05/13 05:45:52;;;;;;;1.10;0.80;;;23.50;44.10;;;;;;5048904;28;20031;-60
2021/05/13 05:48:18;;;;;;;1.50;0.90;;;23.50;44.10;;;;;;5044005;28;20329;-63
2021/05/13 05:50:43;;;;;;;1.58;0.88;;;23.50;44.10;;;;;;5047181;28;20056;-61
2021/05/13 05:53:11;;;;;;;0.70;0.70;;;23.50;44.10;;;;;;5045679;28;20029;-62
2021/05/13 05:55:38;;;;;;;0.80;0.80;;;23.50;44.10;;;;;;5044608;28;20421;-61
2021/05/13 05:58:04;;;;;;;0.95;0.73;;;23.50;44.10;;;;;;5047932;28;20035;-61
2021/05/13 06:00:30;;;;;;;0.75;0.68;;;23.40;44.10;;;;;;5040254;28;20037;-62
2021/05/13 06:02:56;;;;;;;0.70;0.70;;;23.50;44.20;;;;;;5025074;28;20037;-61
2021/05/13 06:05:23;;;;;;;1.08;0.90;;;23.40;44.20;;;;;;5038898;28;20029;-62
2021/05/13 06:07:49;;;;;;;1.00;0.80;;;23.40;44.20;;;;;;5044507;28;20111;-60
2021/05/13 06:10:15;;;;;;;0.70;0.70;;;23.40;44.20;;;;;;5046667;28;20504;-62
2021/05/13 06:12:42;;;;;;;0.80;0.70;;;23.40;44.20;;;;;;5045127;28;20332;-61
2021/05/13 06:15:16;;;;;;;1.00;0.88;;;23.40;44.20;;;;;;5036283;28;20041;-62
2021/05/13 06:17:42;;;;;;;0.82;0.63;;;23.40;44.20;;;;;;5026462;28;20052;-62
2021/05/13 06:20:17;;;;;;;0.80;0.70;;;23.40;44.20;;;;;;5046815;28;20071;-61
2021/05/13 06:22:43;;;;;;;0.60;0.60;;;23.40;44.20;;;;;;5046541;28;20379;-61
2021/05/13 06:25:10;;;;;;;0.80;0.80;;;23.40;44.30;;;;;;5045793;28;20033;-61
2021/05/13 06:27:35;;;;;;;1.00;0.70;;;23.40;44.20;;;;;;5033036;28;20119;-60
2021/05/13 06:30:01;;;;;;;0.70;0.70;;;23.40;44.30;;;;;;5045868;28;20179;-62
2021/05/13 06:32:26;;;;;;;1.00;0.73;;;23.40;44.30;;;;;;5043866;28;20130;-61
2021/05/13 06:34:52;;;;;;;1.48;0.90;;;23.40;44.30;;;;;;5047346;28;20029;-60
2021/05/13 06:37:18;;;;;;;0.73;0.70;;;23.40;44.30;;;;;;5044682;28;20040;-61
2021/05/13 06:39:43;;;;;;;0.70;0.70;;;23.30;44.20;;;;;;5045268;28;20364;-61
2021/05/13 06:42:09;;;;;;;1.35;0.80;;;23.30;44.30;;;;;;5043600;28;20033;-62
2021/05/13 06:44:35;;;;;;;1.48;0.70;;;23.30;44.20;;;;;;5045196;28;20457;-61
2021/05/13 06:47:02;;;;;;;1.35;0.85;;;23.30;44.20;;;;;;5045683;28;20056;-61
2021/05/13 06:49:27;;;;;;;0.93;0.70;;;23.30;44.30;;;;;;5029545;28;20025;-63
2021/05/13 06:51:53;;;;;;;0.82;0.70;;;23.30;44.30;;;;;;5044938;28;20036;-62
2021/05/13 06:54:19;;;;;;;0.70;0.70;;;23.30;44.30;;;;;;5043347;28;20123;-62
2021/05/13 06:56:45;;;;;;;0.98;0.70;;;23.30;44.30;;;;;;5041103;28;20024;-62
2021/05/13 06:59:10;;;;;;;0.73;0.60;;;23.30;44.30;;;;;;5032668;28;20024;-61
2021/05/13 07:01:36;;;;;;;0.80;0.70;;;23.30;44.30;;;;;;5036233;28;20058;-61
2021/05/13 07:04:05;;;;;;;1.05;0.70;;;23.30;44.30;;;;;;5037475;28;20029;-60
2021/05/13 07:06:33;;;;;;;1.27;0.70;;;23.30;44.30;;;;;;5041067;28;20033;-63
2021/05/13 07:08:58;;;;;;;0.95;0.80;;;23.30;44.30;;;;;;5040444;28;20063;-61
2021/05/13 07:11:24;;;;;;;0.82;0.70;;;23.30;44.30;;;;;;5043970;28;20055;-61
2021/05/13 07:13:50;;;;;;;0.85;0.70;;;23.30;44.30;;;;;;5045851;28;20448;-61
2021/05/13 07:16:15;;;;;;;0.65;0.60;;;23.30;44.30;;;;;;5045673;28;20467;-61
2021/05/13 07:18:41;;;;;;;0.95;0.80;;;23.20;44.30;;;;;;5044744;28;20090;-61
2021/05/13 07:21:06;;;;;;;2.35;0.70;;;23.20;44.30;;;;;;5046507;28;20565;-61
2021/05/13 07:23:32;;;;;;;1.02;0.80;;;23.20;44.30;;;;;;5043115;28;20107;-63
2021/05/13 07:25:59;;;;;;;0.90;0.70;;;23.20;44.30;;;;;;5039984;28;20131;-62
2021/05/13 07:28:24;;;;;;;0.80;0.60;;;23.20;44.30;;;;;;5033023;28;20021;-62
2021/05/13 07:30:50;;;;;;;0.77;0.75;;;23.20;44.30;;;;;;5027468;28;20414;-59
2021/05/13 07:33:15;;;;;;;1.13;0.70;;;23.30;44.30;;;;;;5040919;28;20127;-59
2021/05/13 07:35:41;;;;;;;0.95;0.70;;;23.20;44.30;;;;;;5037186;28;20318;-61
2021/05/13 07:38:07;;;;;;;0.70;0.70;;;23.20;44.30;;;;;;5033243;28;20029;-60
2021/05/13 07:40:32;;;;;;;0.85;0.60;;;23.20;44.30;;;;;;5024262;28;20125;-62
2021/05/13 07:42:58;;;;;;;0.70;0.60;;;23.20;44.30;;;;;;5025666;28;20044;-61
2021/05/13 07:45:24;;;;;;;0.80;0.60;;;23.20;44.30;;;;;;5040123;28;20073;-60
2021/05/13 07:47:50;;;;;;;1.08;0.70;;;23.20;44.30;;;;;;5041787;28;20538;-59
2021/05/13 07:50:18;;;;;;;0.90;0.70;;;23.20;44.30;;;;;;5031457;28;20336;-61
2021/05/13 07:52:45;;;;;;;1.20;0.60;;;23.20;44.30;;;;;;5040731;28;20032;-64
2021/05/13 07:55:12;;;;;;;1.13;0.73;;;23.20;44.30;;;;;;5044305;28;20033;-60
2021/05/13 07:57:38;;;;;;;0.65;0.65;;;23.20;44.30;;;;;;5044732;28;20720;-62
2021/05/13 08:00:05;;;;;;;1.00;0.80;;;23.20;44.30;;;;;;5028214;28;20061;-63
2021/05/13 08:02:31;;;;;;;1.02;0.70;;;23.20;44.30;;;;;;5024599;28;20057;-61
2021/05/13 08:04:56;;;;;;;0.75;0.70;;;23.20;44.40;;;;;;5037575;28;20469;-62
2021/05/13 08:07:23;;;;;;;1.02;0.70;;;23.20;44.40;;;;;;5025785;28;20025;-61
2021/05/13 08:09:49;;;;;;;0.63;0.60;;;23.10;44.40;;;;;;5040063;28;20040;-61
2021/05/13 08:12:15;;;;;;;0.85;0.70;;;23.10;44.40;;;;;;5043242;28;20025;-62
2021/05/13 08:14:41;;;;;;;0.65;0.60;;;23.10;44.40;;;;;;5044410;28;20460;-61
2021/05/13 08:17:07;;;;;;;0.93;0.77;;;23.10;44.50;;;;;;5042947;28;20144;-60
2021/05/13 08:19:32;;;;;;;0.60;0.60;;;23.10;45.00;;;;;;5039542;28;20077;-62
2021/05/13 08:21:58;;;;;;;0.75;0.60;;;23.10;44.50;;;;;;5043878;28;20039;-62
2021/05/13 08:24:24;;;;;;;0.88;0.70;;;23.10;44.50;;;;;;5043829;28;20502;-62
2021/05/13 08:26:50;;;;;;;0.55;0.52;;;23.10;44.50;;;;;;5043943;28;20118;-61
2021/05/13 08:29:16;;;;;;;1.27;0.70;;;23.10;44.60;;;;;;5040748;28;20037;-61
2021/05/13 08:31:41;;;;;;;0.73;0.70;;;23.10;44.60;;;;;;5026417;28;20496;-64
2021/05/13 08:34:09;;;;;;;1.02;0.77;;;23.10;44.60;;;;;;5040726;28;20029;-60
2021/05/13 08:36:37;;;;;;;0.93;0.70;;;23.10;44.60;;;;;;5038705;28;20460;-63
2021/05/13 08:39:17;;;;;;;0.75;0.60;;;23.10;44.60;;;;;;5041370;28;20066;-61
2021/05/13 08:41:52;;;;;;;1.00;0.70;;;23.10;44.60;;;;;;5034898;28;20025;-63
2021/05/13 08:44:18;;;;;;;0.95;0.70;;;23.10;44.60;;;;;;5040081;28;20706;-63
2021/05/13 08:46:43;;;;;;;0.93;0.70;;;23.10;44.60;;;;;;5030657;28;20100;-61
2021/05/13 08:49:09;;;;;;;1.48;0.70;;;23.10;44.70;;;;;;5027492;28;20027;-61
2021/05/13 08:51:37;;;;;;;0.70;0.70;;;23.10;44.70;;;;;;5041958;28;20033;-64
2021/05/13 08:54:04;;;;;;;0.73;0.70;;;23.10;44.70;;;;;;5038757;28;20060;-61
2021/05/13 08:56:30;;;;;;;0.88;0.70;;;23.10;44.70;;;;;;5047481;28;20037;-61
2021/05/13 08:59:03;;;;;;;0.57;0.57;;;23.10;44.70;;;;;;5050263;28;20206;-61
2021/05/13 09:01:30;;;;;;;1.00;0.70;;;23.10;44.70;;;;;;5039494;28;20116;-61
2021/05/13 09:03:58;;;;;;;0.90;0.70;;;23.10;44.70;;;;;;5044818;28;20025;-61
2021/05/13 09:06:31;;;;;;;1.02;0.73;;;23.10;44.70;;;;;;5039378;28;20022;-61
2021/05/13 09:09:08;;;;;;;0.80;0.70;;;23.10;44.70;;;;;;5043888;28;20139;-61
2021/05/13 09:11:34;;;;;;;0.73;0.70;;;23.10;44.80;;;;;;5048095;28;20561;-62
2021/05/13 09:14:03;;;;;;;1.38;0.70;;;23.10;44.70;;;;;;5032550;28;20021;-62
2021/05/13 09:16:35;;;;;;;1.17;0.80;;;23.10;44.80;;;;;;5047623;28;20029;-61
2021/05/13 09:19:25;;;;;;;1.10;0.80;;;23.10;44.80;;;;;;5046959;28;20028;-61
2021/05/13 09:21:56;;;;;;;1.73;0.80;;;23.10;44.80;;;;;;5039183;28;20424;-62
2021/05/13 09:24:43;;;;;;;0.95;0.77;;;23.10;44.80;;;;;;5040377;28;20068;-62
2021/05/13 09:27:16;;;;;;;0.82;0.80;;;23.10;44.80;;;;;;5044194;28;20641;-61
2021/05/13 09:29:42;;;;;;;1.55;0.80;;;23.10;44.80;;;;;;5033888;28;20052;-61
2021/05/13 09:32:18;;;;;;;1.42;0.90;;;23.10;44.80;;;;;;5036473;28;20045;-63
2021/05/13 09:34:45;;;;;;;1.48;0.75;;;23.10;44.80;;;;;;5045647;28;20636;-59
2021/05/13 09:37:10;;;;;;;1.48;0.90;;;23.10;44.80;;;;;;5045898;28;20032;-61
2021/05/13 09:39:43;;;;;;;2.10;0.90;;;23.10;44.80;;;;;;5041423;28;20036;-62
2021/05/13 09:42:09;;;;;;;1.95;0.93;;;23.10;44.80;;;;;;5045390;28;20135;-63
2021/05/13 09:44:40;;;;;;;1.90;0.98;;;23.10;44.80;;;;;;5044916;28;20417;-62
2021/05/13 09:47:21;;;;;;;1.58;0.90;;;23.10;44.70;;;;;;5045437;28;20347;-61
2021/05/13 09:50:11;;;;;;;2.08;1.00;;;23.10;44.70;;;;;;5031599;28;20040;-63
2021/05/13 09:52:36;;;;;;;;;;;23.10;44.70;;;;;;5033946;28;20040;-62
2021/05/13 09:55:13;;;;;;;2.10;0.90;;;23.10;44.80;;;;;;5039462;28;19935;-63
2021/05/13 09:57:40;;;;;;;1.58;1.00;;;23.10;44.70;;;;;;5043806;28;20037;-64
2021/05/13 10:00:07;;;;;;;1.85;0.98;;;23.10;44.70;;;;;;5042622;28;20033;-61
2021/05/13 10:02:34;;;;;;;2.30;1.17;;;23.10;44.70;;;;;;5036416;28;20023;-61
2021/05/13 10:05:00;;;;;;;1.73;0.95;;;23.10;44.70;;;;;;5037753;28;20035;-63
2021/05/13 10:07:27;;;;;;;2.90;1.10;;;23.10;44.70;;;;;;5038706;28;20029;-61
2021/05/13 10:09:53;;;;;;;1.88;1.00;;;23.10;44.70;;;;;;5038943;28;20029;-61
2021/05/13 10:12:20;;;;;;;1.83;1.00;;;23.10;44.80;;;;;;5043835;28;20186;-61
2021/05/13 10:14:50;;;;;;;3.45;1.00;;;23.10;44.70;;;;;;5043969;28;20472;-60
2021/05/13 10:17:17;;;;;;;1.08;0.85;;;23.10;44.70;;;;;;5042512;28;20032;-60
2021/05/13 10:19:49;;;;;;;1.77;1.10;;;23.10;44.70;;;;;;5042082;28;20029;-62
2021/05/13 10:22:16;;;;;;;2.15;1.20;;;23.10;44.80;;;;;;5034375;28;20459;-61
2021/05/13 10:24:45;;;;;;;1.60;0.90;;;23.10;44.80;;;;;;5044774;28;20457;-62
2021/05/13 10:27:16;;;;;;;1.90;0.90;;;23.10;44.80;;;;;;5040069;28;20029;-62
2021/05/13 10:29:41;;;;;;;2.53;1.05;;;23.10;44.80;;;;;;5040677;28;20029;-63
2021/05/13 10:34:41;;;;;;;2.47;1.25;;;23.10;44.80;;;;;;5034840;28;20041;-62
2021/05/13 10:37:13;;;;;;;2.95;1.40;;;23.10;44.80;;;;;;5042890;28;20037;-63
2021/05/13 10:42:48;;;;;;;2.47;1.10;;;23.10;44.90;;;;;;5030101;28;20032;-62
2021/05/13 10:45:26;;;;;;;2.33;1.27;;;23.10;45.00;;;;;;5036178;28;20097;-64
2021/05/13 10:48:18;;;;;;;2.33;1.33;;;23.10;45.10;;;;;;5034614;28;20853;-62
2021/05/13 10:50:55;;;;;;;2.28;1.23;;;23.10;45.20;;;;;;5025720;28;20082;-62
2021/05/13 10:53:35;;;;;;;2.25;1.13;;;23.10;45.20;;;;;;5029101;28;20650;-61
2021/05/13 10:56:22;;;;;;;2.95;1.33;;;23.10;45.30;;;;;;5038260;28;20063;-63
2021/05/13 10:58:52;;;;;;;3.20;1.35;;;23.10;45.30;;;;;;5026273;28;20026;-63
2021/05/13 11:01:47;;;;;;;2.92;1.30;;;23.10;45.30;;;;;;5028828;28;20471;-62
2021/05/13 11:04:22;;;;;;;3.03;1.20;;;23.10;45.40;;;;;;5043960;28;20083;-64
2021/05/13 11:06:49;;;;;;;2.92;1.30;;;23.10;45.30;;;;;;5035480;28;20536;-62
2021/05/13 11:09:41;;;;;;;2.20;1.15;;;23.10;45.30;;;;;;5038306;28;20417;-61
2021/05/13 11:12:16;;;;;;;2.45;1.30;;;23.10;45.40;;;;;;5039609;28;20116;-63
2021/05/13 11:20:44;;;;;;;3.08;1.40;;;23.20;45.50;;;;;;5000298;28;20060;-63
2021/05/13 11:23:21;;;;;;;2.20;1.30;;;23.10;45.50;;;;;;5026274;28;20025;-62
2021/05/13 11:25:52;;;;;;;2.90;1.23;;;23.10;45.50;;;;;;5033553;28;20333;-64
2021/05/13 11:28:27;;;;;;;3.70;1.23;;;23.20;45.50;;;;;;5030933;28;20037;-63
2021/05/13 11:31:03;;;;;;;2.83;1.27;;;23.10;45.60;;;;;;5031852;28;20041;-62
2021/05/13 11:33:37;;;;;;;2.47;1.40;;;23.10;45.50;;;;;;5032161;28;20028;-64
2021/05/13 11:36:05;;;;;;;2.55;1.30;;;23.20;45.60;;;;;;5028939;28;20414;-63
2021/05/13 11:38:31;;;;;;;2.65;1.20;;;23.20;45.60;;;;;;5025648;28;20025;-61
2021/05/13 11:40:57;;;;;;;3.88;1.20;;;23.20;45.60;;;;;;5026967;28;20326;-63
2021/05/13 11:43:27;;;;;;;2.35;1.27;;;23.20;45.70;;;;;;5019615;28;20056;-62
2021/05/13 11:45:55;;;;;;;2.05;1.20;;;23.20;45.60;;;;;;5034579;28;20317;-61
2021/05/13 11:48:29;;;;;;;3.17;1.50;;;23.20;45.60;;;;;;5027289;28;20112;-63
2021/05/13 11:50:57;;;;;;;3.10;1.50;;;23.20;45.70;;;;;;5025118;28;20100;-62
2021/05/13 11:53:24;;;;;;;2.97;1.50;;;23.20;45.60;;;;;;5035354;28;20334;-61
2021/05/13 11:55:50;;;;;;;4.82;1.60;;;23.20;45.60;;;;;;5037215;28;20492;-61
2021/05/13 11:58:45;;;;;;;2.72;1.40;;;23.20;45.70;;;;;;5032652;28;20036;-61
2021/05/13 12:01:47;;;;;;;2.20;1.20;;;23.20;45.70;;;;;;5030671;28;20128;-62
2021/05/13 12:04:17;;;;;;;2.80;1.30;;;23.20;45.60;;;;;;5002415;28;20523;-61
2021/05/13 12:07:00;;;;;;;4.50;1.70;;;23.20;45.70;;;;;;5021942;28;20291;-63
2021/05/13 12:09:28;;;;;;;3.30;1.52;;;23.20;45.70;;;;;;5027465;28;20354;-61
2021/05/13 12:11:55;;;;;;;3.97;1.60;;;23.20;45.60;;;;;;5028611;28;20434;-62
2021/05/13 12:14:31;;;;;;;4.10;1.40;;;23.20;45.70;;;;;;5033678;28;20163;-61
2021/05/13 12:17:04;;;;;;;3.88;1.40;;;23.20;45.70;;;;;;5029534;28;20135;-61
2021/05/13 12:19:33;;;;;;;3.35;1.30;;;23.20;45.70;;;;;;5030253;28;20515;-62
2021/05/13 12:22:01;;;;;;;4.78;1.45;;;23.20;45.70;;;;;;5035395;28;20021;-61
2021/05/13 12:24:29;;;;;;;2.92;1.50;;;23.20;45.70;;;;;;5027922;28;20040;-63
2021/05/13 12:26:55;;;;;;;3.78;1.40;;;23.20;45.60;;;;;;5041048;28;20056;-62
2021/05/13 12:29:21;;;;;;;2.70;1.48;;;23.20;45.70;;;;;;5039817;28;20033;-63
2021/05/13 12:31:48;;;;;;;4.20;1.50;;;23.20;45.60;;;;;;5045249;28;20457;-66
2021/05/13 12:34:36;;;;;;;4.47;1.40;;;23.20;45.60;;;;;;5039418;28;20034;-64
2021/05/13 12:37:04;;;;;;;2.67;1.25;;;23.20;45.70;;;;;;5043294;28;20033;-62
2021/05/13 12:39:39;;;;;;;3.85;1.75;;;23.20;45.60;;;;;;5041067;28;20049;-64
2021/05/13 12:42:31;;;;;;;3.45;1.67;;;23.20;45.60;;;;;;5038088;28;20538;-65
2021/05/13 12:45:25;;;;;;;2.65;1.40;;;23.30;45.70;;;;;;5042759;28;20477;-65
2021/05/13 12:48:01;;;;;;;1.98;1.20;;;23.20;45.60;;;;;;5038425;28;20056;-63
2021/05/13 12:50:27;;;;;;;2.97;1.38;;;23.30;45.60;;;;;;5034825;28;20063;-66
2021/05/13 12:53:09;;;;;;;3.25;1.30;;;23.30;45.50;;;;;;5040950;28;20040;-64
2021/05/13 12:55:39;;;;;;;3.35;1.40;;;23.30;45.40;;;;;;5040813;28;20048;-62
2021/05/13 12:58:14;;;;;;;2.33;1.33;;;23.30;45.30;;;;;;5039330;28;20026;-62
2021/05/13 13:00:41;;;;;;;2.28;1.30;;;23.30;45.30;;;;;;5037109;28;20400;-62
2021/05/13 13:03:12;;;;;;;3.33;1.40;;;23.30;45.30;;;;;;5033877;28;20127;-65
2021/05/13 13:05:38;;;;;;;3.33;1.40;;;23.30;45.30;;;;;;5042735;28;20154;-62
2021/05/13 13:08:04;;;;;;;1.80;1.10;;;23.30;45.30;;;;;;5044662;28;20563;-64
2021/05/13 13:10:35;;;;;;;2.50;1.20;;;23.30;45.30;;;;;;5040361;28;20391;-64
2021/05/13 13:13:04;;;;;;;2.65;1.23;;;23.30;45.30;;;;;;5044239;28;20024;-62
2021/05/13 13:15:34;;;;;;;2.58;1.30;;;23.30;45.40;;;;;;5047302;28;20029;-64